Time;durP1;ratioP1;P1;durP2;ratioP2;P2;SDS_P1;SDS_P2;PMS_P1;PMS_P2;Temp;Humidity;BMP_temperature;BMP_pressure;BME280_temperature;BME280_humidity;BME280_pressure;Samples;Min_cycle;Max_cycle;Signal;HPM_P1;HPM_P2
2023/02/03 00:01:29;;;;;;;3.40;2.80;;;6.60;99.90;;;;;;5048745;28;20181;-86
2023/02/03 00:03:54;;;;;;;3.67;2.80;;;6.60;99.90;;;;;;5029286;28;20208;-85
2023/02/03 00:06:20;;;;;;;6.47;3.37;;;6.60;99.90;;;;;;5027484;28;20213;-85
2023/02/03 00:08:46;;;;;;;5.43;3.20;;;6.50;99.90;;;;;;5038868;28;20182;-86
2023/02/03 00:11:12;;;;;;;6.13;3.30;;;6.60;99.90;;;;;;5034970;28;20210;-85
2023/02/03 00:13:38;;;;;;;5.20;3.33;;;6.60;99.90;;;;;;5036784;28;20248;-85
2023/02/03 00:16:05;;;;;;;5.30;3.37;;;6.60;99.90;;;;;;5049167;28;20181;-85
2023/02/03 00:18:32;;;;;;;4.37;2.93;;;6.50;99.90;;;;;;5041318;28;20189;-86
2023/02/03 00:20:58;;;;;;;6.07;3.33;;;6.60;99.90;;;;;;5035813;28;20213;-85
2023/02/03 00:23:24;;;;;;;4.43;3.30;;;6.60;99.90;;;;;;5048569;28;20181;-86
2023/02/03 00:25:51;;;;;;;6.67;3.53;;;6.50;99.90;;;;;;5048189;28;20200;-85
2023/02/03 00:28:17;;;;;;;4.80;3.43;;;6.60;99.90;;;;;;5047642;28;20697;-86
2023/02/03 00:30:43;;;;;;;5.13;3.33;;;6.60;99.90;;;;;;5046655;28;20220;-85
2023/02/03 00:33:08;;;;;;;3.70;2.80;;;6.70;99.90;;;;;;5046714;28;20245;-86
2023/02/03 00:35:38;;;;;;;3.20;2.90;;;6.60;99.90;;;;;;5046541;28;20176;-86
2023/02/03 00:38:04;;;;;;;4.37;2.90;;;6.50;99.90;;;;;;5046854;28;20166;-85
2023/02/03 00:40:30;;;;;;;3.97;3.07;;;6.60;99.90;;;;;;5047994;28;20189;-85
2023/02/03 00:42:56;;;;;;;3.67;3.23;;;6.70;99.90;;;;;;5048154;28;20241;-87
2023/02/03 00:45:22;;;;;;;6.27;3.10;;;6.60;99.90;;;;;;5048199;28;20212;-85
2023/02/03 00:47:48;;;;;;;3.87;3.50;;;6.60;99.90;;;;;;5050066;28;20195;-86
2023/02/03 00:50:13;;;;;;;3.13;2.73;;;6.60;99.90;;;;;;5049895;28;20200;-86
2023/02/03 00:52:39;;;;;;;6.57;3.37;;;6.70;99.90;;;;;;5049026;28;20181;-87
2023/02/03 00:55:05;;;;;;;4.53;3.07;;;6.60;99.90;;;;;;5048859;28;20273;-85
2023/02/03 00:57:31;;;;;;;4.27;2.77;;;6.70;99.90;;;;;;5047725;28;20185;-85
2023/02/03 00:59:57;;;;;;;5.23;3.27;;;6.70;99.90;;;;;;5049106;28;20205;-85
2023/02/03 01:02:23;;;;;;;5.37;3.30;;;6.70;99.90;;;;;;5045675;28;20201;-86
2023/02/03 01:04:49;;;;;;;6.27;3.00;;;6.80;99.90;;;;;;5041202;28;20186;-87
2023/02/03 01:07:15;;;;;;;3.97;2.80;;;6.80;99.90;;;;;;5046761;28;20335;-84
2023/02/03 01:09:41;;;;;;;3.50;2.57;;;6.80;99.90;;;;;;5047432;28;20205;-86
2023/02/03 01:12:07;;;;;;;3.20;2.83;;;6.80;99.90;;;;;;5045129;28;20272;-85
2023/02/03 01:14:33;;;;;;;3.50;2.80;;;6.80;99.90;;;;;;5030141;28;20208;-86
2023/02/03 01:16:59;;;;;;;3.53;2.70;;;6.80;99.90;;;;;;5025731;28;20254;-85
2023/02/03 01:19:25;;;;;;;5.60;2.80;;;6.70;99.90;;;;;;5026571;28;20198;-87
2023/02/03 01:21:51;;;;;;;4.80;2.73;;;6.80;99.90;;;;;;5044554;28;20238;-86
2023/02/03 01:24:16;;;;;;;3.57;2.67;;;6.80;99.90;;;;;;5044146;28;20261;-87
2023/02/03 01:26:42;;;;;;;4.90;3.17;;;6.80;99.90;;;;;;5044352;28;20211;-85
2023/02/03 01:29:09;;;;;;;3.63;2.50;;;6.90;99.90;;;;;;5042829;28;20230;-86
2023/02/03 01:31:38;;;;;;;3.90;2.50;;;6.80;99.90;;;;;;5043116;28;20173;-87
2023/02/03 01:34:05;;;;;;;3.90;2.70;;;6.80;99.90;;;;;;5042311;28;20177;-86
2023/02/03 01:36:33;;;;;;;3.60;2.87;;;6.80;99.90;;;;;;5042892;28;20181;-85
2023/02/03 01:38:59;;;;;;;4.17;2.47;;;6.80;99.90;;;;;;5042363;28;20199;-86
2023/02/03 01:41:33;;;;;;;5.57;2.63;;;6.80;99.90;;;;;;5042064;28;20196;-85
2023/02/03 01:44:00;;;;;;;3.60;2.40;;;6.80;99.90;;;;;;5043116;28;20254;-85
2023/02/03 01:46:40;;;;;;;3.87;2.60;;;6.80;99.90;;;;;;5043801;28;20275;-85
2023/02/03 01:49:12;;;;;;;2.83;2.40;;;6.80;99.90;;;;;;5043234;28;20188;-86
2023/02/03 01:51:41;;;;;;;4.40;2.80;;;6.80;99.90;;;;;;5043825;28;20180;-87
2023/02/03 01:54:10;;;;;;;4.67;2.37;;;6.80;99.90;;;;;;5043481;28;20169;-86
2023/02/03 01:56:39;;;;;;;3.03;2.57;;;6.70;99.90;;;;;;5044603;28;20180;-86
2023/02/03 01:59:05;;;;;;;2.80;2.17;;;6.80;99.90;;;;;;5045321;28;20205;-86
2023/02/03 02:01:33;;;;;;;3.00;2.33;;;6.70;99.90;;;;;;5025994;28;20188;-86
2023/02/03 02:04:01;;;;;;;4.50;2.40;;;6.70;99.90;;;;;;5031639;28;20193;-85
2023/02/03 02:06:27;;;;;;;5.77;2.47;;;6.80;99.90;;;;;;5042300;28;20204;-85
2023/02/03 02:08:54;;;;;;;2.93;2.43;;;6.50;99.90;;;;;;5043413;28;20192;-85
2023/02/03 02:11:20;;;;;;;3.10;2.43;;;6.40;99.90;;;;;;5043267;28;20197;-86
2023/02/03 02:13:47;;;;;;;2.70;2.20;;;6.40;99.90;;;;;;5042910;28;20208;-86
2023/02/03 02:16:34;;;;;;;4.00;2.87;;;6.40;99.90;;;;;;5042762;28;20272;-86
2023/02/03 02:19:31;;;;;;;3.83;2.67;;;6.50;99.90;;;;;;5041680;28;20211;-86
2023/02/03 02:22:30;;;;;;;3.87;2.87;;;6.50;99.90;;;;;;5042836;28;20188;-85
2023/02/03 02:25:02;;;;;;;3.13;2.27;;;6.50;99.90;;;;;;4987789;28;20262;-86
2023/02/03 02:27:33;;;;;;;3.63;2.53;;;6.60;99.90;;;;;;5041351;28;20180;-87
2023/02/03 02:30:18;;;;;;;3.57;2.53;;;6.60;99.90;;;;;;5042642;28;20218;-85
2023/02/03 02:32:56;;;;;;;2.20;2.00;;;6.60;99.90;;;;;;5043892;28;20156;-86
2023/02/03 02:35:38;;;;;;;4.10;2.17;;;6.70;99.90;;;;;;5044541;28;20188;-86
2023/02/03 02:38:08;;;;;;;5.13;2.33;;;6.60;99.90;;;;;;5043006;28;20169;-85
2023/02/03 02:40:55;;;;;;;2.50;2.20;;;6.60;99.90;;;;;;5045456;28;20738;-86
2023/02/03 02:43:37;;;;;;;3.10;2.10;;;6.60;99.90;;;;;;5044791;28;20188;-86
2023/02/03 02:46:11;;;;;;;3.27;2.60;;;6.60;99.90;;;;;;5044142;28;20244;-85
2023/02/03 02:48:46;;;;;;;4.43;2.47;;;6.60;99.90;;;;;;5045427;28;20172;-85
2023/02/03 02:51:14;;;;;;;3.20;2.10;;;6.60;99.90;;;;;;5044058;28;20414;-86
2023/02/03 02:53:50;;;;;;;3.60;2.67;;;6.60;99.90;;;;;;5048023;28;20192;-85
2023/02/03 02:56:18;;;;;;;2.83;2.63;;;6.60;99.90;;;;;;5048509;28;20196;-86
2023/02/03 02:58:47;;;;;;;2.47;2.17;;;6.50;99.90;;;;;;5036364;28;20192;-85
2023/02/03 03:01:14;;;;;;;3.70;2.60;;;6.60;99.90;;;;;;5049280;28;20208;-86
2023/02/03 03:03:43;;;;;;;2.30;2.10;;;6.60;99.90;;;;;;5045132;28;20252;-86
2023/02/03 03:06:15;;;;;;;2.47;2.23;;;6.60;99.90;;;;;;5028889;28;20701;-86
2023/02/03 03:08:46;;;;;;;3.90;2.47;;;6.70;99.90;;;;;;5029055;28;20162;-86
2023/02/03 03:11:12;;;;;;;3.27;2.30;;;6.60;99.90;;;;;;5029360;28;20197;-86
2023/02/03 03:13:44;;;;;;;3.30;2.20;;;6.50;99.90;;;;;;5029263;28;20235;-85
2023/02/03 03:16:11;;;;;;;2.53;2.00;;;6.50;99.90;;;;;;5045047;28;20185;-85
2023/02/03 03:18:47;;;;;;;3.70;2.40;;;6.60;99.90;;;;;;5048675;28;20185;-86
2023/02/03 03:21:21;;;;;;;2.50;2.30;;;6.50;99.90;;;;;;5047127;28;20255;-84
2023/02/03 03:23:50;;;;;;;3.13;2.20;;;6.50;99.90;;;;;;5046900;28;20215;-85
2023/02/03 03:26:40;;;;;;;3.20;2.40;;;6.40;99.90;;;;;;5046687;28;20762;-86
2023/02/03 03:29:19;;;;;;;2.60;1.93;;;6.40;99.90;;;;;;5047631;28;20157;-89
2023/02/03 03:31:45;;;;;;;3.40;2.10;;;6.40;99.90;;;;;;5048042;28;20168;-86
2023/02/03 03:34:12;;;;;;;4.47;2.10;;;6.40;99.90;;;;;;5046880;28;20173;-86
2023/02/03 03:36:53;;;;;;;4.63;2.10;;;6.40;99.90;;;;;;5046707;28;20194;-86
2023/02/03 03:39:28;;;;;;;2.83;2.17;;;6.50;99.90;;;;;;5048479;28;20208;-86
2023/02/03 03:42:03;;;;;;;6.33;2.30;;;6.40;99.90;;;;;;5047143;28;20191;-86
2023/02/03 03:44:36;;;;;;;3.97;2.07;;;6.30;99.90;;;;;;5047452;28;20177;-86
2023/02/03 03:47:11;;;;;;;2.27;2.07;;;6.20;99.90;;;;;;5047081;28;20212;-86
2023/02/03 03:49:39;;;;;;;4.80;2.27;;;6.30;99.90;;;;;;5047188;28;20203;-86
2023/02/03 03:52:08;;;;;;;2.33;2.13;;;6.30;99.90;;;;;;5039375;28;20201;-86
2023/02/03 03:54:36;;;;;;;2.40;2.20;;;6.30;99.90;;;;;;5038620;28;20177;-84
2023/02/03 03:57:14;;;;;;;2.53;2.10;;;6.30;99.90;;;;;;5047831;28;20178;-85
2023/02/03 03:59:43;;;;;;;4.03;2.27;;;6.40;99.90;;;;;;5047198;28;20752;-86
2023/02/03 04:02:11;;;;;;;3.37;2.03;;;6.30;99.90;;;;;;5040005;28;20200;-86
2023/02/03 04:04:38;;;;;;;3.43;1.90;;;6.40;99.90;;;;;;5033433;28;20209;-86
2023/02/03 04:07:04;;;;;;;2.90;1.90;;;6.50;99.90;;;;;;5045947;28;20208;-86
2023/02/03 04:09:30;;;;;;;2.73;1.93;;;6.40;99.90;;;;;;5046202;28;20208;-86
2023/02/03 04:12:02;;;;;;;2.13;1.80;;;6.50;99.90;;;;;;5044906;28;20201;-86
2023/02/03 04:14:29;;;;;;;2.17;1.97;;;6.50;99.90;;;;;;5044847;28;20199;-86
2023/02/03 04:16:56;;;;;;;3.00;2.03;;;6.50;99.90;;;;;;5048710;28;20185;-87
2023/02/03 04:19:22;;;;;;;2.13;1.80;;;6.40;99.90;;;;;;5049300;28;20221;-86
2023/02/03 04:21:47;;;;;;;3.17;2.20;;;6.40;99.90;;;;;;5050039;28;20181;-86
2023/02/03 04:24:13;;;;;;;2.37;1.87;;;6.30;99.90;;;;;;5047304;28;20177;-85
2023/02/03 04:26:39;;;;;;;3.23;2.10;;;6.30;99.90;;;;;;5045695;28;20259;-86
2023/02/03 04:29:05;;;;;;;3.27;1.93;;;6.20;99.90;;;;;;5045606;28;20188;-87
2023/02/03 04:31:31;;;;;;;2.07;1.90;;;6.20;99.90;;;;;;5044620;28;20173;-84
2023/02/03 04:33:56;;;;;;;2.37;1.97;;;6.20;99.90;;;;;;5043696;28;20185;-85
2023/02/03 04:36:22;;;;;;;2.67;1.80;;;6.20;99.90;;;;;;5045066;28;20240;-85
2023/02/03 04:38:48;;;;;;;2.97;2.03;;;6.30;99.90;;;;;;5044209;28;20325;-85
2023/02/03 04:41:14;;;;;;;2.20;2.00;;;6.20;99.90;;;;;;5044984;28;20256;-85
2023/02/03 04:43:40;;;;;;;2.30;2.10;;;6.20;99.90;;;;;;5044680;28;20185;-86
2023/02/03 04:46:06;;;;;;;2.53;2.20;;;6.20;99.90;;;;;;5042624;28;20197;-85
2023/02/03 04:48:31;;;;;;;2.10;1.80;;;6.20;99.90;;;;;;5042347;28;20186;-86
2023/02/03 04:51:05;;;;;;;2.53;2.20;;;6.30;99.90;;;;;;5040927;28;20319;-86
2023/02/03 04:53:31;;;;;;;4.70;2.10;;;6.40;99.90;;;;;;5031702;28;20178;-86
2023/02/03 04:55:57;;;;;;;2.23;2.03;;;6.50;99.90;;;;;;5025972;28;20198;-85
2023/02/03 04:58:25;;;;;;;2.73;1.90;;;6.50;99.90;;;;;;5038580;28;20241;-86
2023/02/03 05:00:50;;;;;;;1.73;1.63;;;6.50;99.90;;;;;;5043594;28;20255;-85
2023/02/03 05:03:16;;;;;;;3.90;2.20;;;6.50;99.90;;;;;;5042750;28;20200;-85
2023/02/03 05:05:42;;;;;;;3.23;2.00;;;6.60;99.90;;;;;;5041676;28;20205;-85
2023/02/03 05:08:07;;;;;;;2.80;2.13;;;6.60;99.90;;;;;;5041611;28;20508;-86
2023/02/03 05:10:33;;;;;;;2.30;2.10;;;6.60;99.90;;;;;;5042579;28;20201;-86
2023/02/03 05:12:59;;;;;;;2.83;2.20;;;6.60;99.90;;;;;;5040804;28;20181;-85
2023/02/03 05:15:24;;;;;;;2.30;2.10;;;6.50;99.90;;;;;;5022750;28;20194;-86
2023/02/03 05:17:53;;;;;;;5.33;2.20;;;6.60;99.90;;;;;;5021958;28;20182;-85
2023/02/03 05:20:19;;;;;;;2.37;1.90;;;6.60;99.90;;;;;;5032871;28;20208;-86
2023/02/03 05:22:45;;;;;;;3.47;2.30;;;6.60;99.90;;;;;;5042964;28;20666;-86
2023/02/03 05:25:11;;;;;;;4.33;2.10;;;6.60;99.90;;;;;;5042349;28;20219;-86
2023/02/03 05:27:38;;;;;;;3.70;1.93;;;6.60;99.90;;;;;;5039692;28;20204;-86
2023/02/03 05:30:08;;;;;;;2.90;2.27;;;6.70;99.90;;;;;;5042487;28;20239;-85
2023/02/03 05:32:33;;;;;;;2.40;2.10;;;6.70;99.90;;;;;;5043798;28;20181;-86
2023/02/03 05:34:59;;;;;;;2.97;1.90;;;6.70;99.90;;;;;;5043953;28;20223;-85
2023/02/03 05:37:25;;;;;;;2.47;2.17;;;6.70;99.90;;;;;;5044402;28;20169;-86
2023/02/03 05:39:51;;;;;;;3.40;2.10;;;6.60;99.90;;;;;;5044896;28;20208;-86
2023/02/03 05:42:16;;;;;;;2.93;2.30;;;6.60;99.90;;;;;;5044367;28;20198;-87
2023/02/03 05:44:42;;;;;;;2.93;2.20;;;6.80;99.90;;;;;;5043334;28;20185;-87
2023/02/03 05:47:07;;;;;;;3.40;2.07;;;6.80;99.90;;;;;;5028024;28;20213;-86
2023/02/03 05:49:33;;;;;;;2.43;2.10;;;6.80;99.90;;;;;;5036687;28;20197;-85
2023/02/03 05:51:59;;;;;;;2.43;2.23;;;6.70;99.90;;;;;;5043412;28;20258;-86
2023/02/03 05:54:25;;;;;;;2.90;2.13;;;6.80;99.90;;;;;;5043747;28;20215;-85
2023/02/03 05:56:51;;;;;;;2.10;1.90;;;6.80;99.90;;;;;;5043216;28;20236;-85
2023/02/03 05:59:16;;;;;;;2.07;1.90;;;6.70;99.90;;;;;;5042214;28;20756;-86
2023/02/03 06:01:42;;;;;;;2.23;1.83;;;6.80;99.90;;;;;;5037192;28;20323;-87
2023/02/03 06:04:08;;;;;;;5.53;2.07;;;6.70;99.90;;;;;;5030137;28;20799;-84
2023/02/03 06:06:34;;;;;;;2.90;2.10;;;6.60;99.90;;;;;;5041675;28;20738;-86
2023/02/03 06:09:01;;;;;;;5.17;2.50;;;6.60;99.90;;;;;;5041061;28;20178;-86
2023/02/03 06:11:27;;;;;;;2.73;2.10;;;6.60;99.90;;;;;;5043009;28;20178;-84
2023/02/03 06:13:54;;;;;;;2.97;2.17;;;6.60;99.90;;;;;;5034348;28;20675;-86
2023/02/03 06:16:23;;;;;;;2.80;2.23;;;6.60;99.90;;;;;;5021130;28;20177;-86
2023/02/03 06:18:50;;;;;;;1.93;1.83;;;6.60;99.90;;;;;;5021352;28;20197;-85
2023/02/03 06:21:16;;;;;;;2.47;2.10;;;6.50;99.90;;;;;;5030926;28;20594;-86
2023/02/03 06:23:41;;;;;;;2.47;2.20;;;6.50;99.90;;;;;;5042174;28;20185;-85
2023/02/03 06:26:07;;;;;;;2.43;1.90;;;6.50;99.90;;;;;;5041662;28;20272;-85
2023/02/03 06:28:33;;;;;;;3.33;2.03;;;6.50;99.90;;;;;;5042678;28;20191;-86
2023/02/03 06:30:58;;;;;;;2.47;2.10;;;6.50;99.90;;;;;;5042820;28;20212;-86
2023/02/03 06:33:24;;;;;;;2.50;2.20;;;6.30;99.90;;;;;;5033070;28;20184;-85
2023/02/03 06:35:50;;;;;;;2.10;1.90;;;6.30;99.90;;;;;;5030580;28;20192;-84
2023/02/03 06:38:15;;;;;;;3.30;2.30;;;6.30;99.90;;;;;;5034669;28;20209;-84
2023/02/03 06:40:41;;;;;;;4.30;2.30;;;6.20;99.90;;;;;;5028326;28;20208;-87
2023/02/03 06:43:07;;;;;;;4.30;2.50;;;6.20;99.90;;;;;;5027502;28;20284;-85
2023/02/03 06:45:33;;;;;;;3.87;2.40;;;6.20;99.90;;;;;;5031002;28;20221;-87
2023/02/03 06:47:59;;;;;;;3.57;2.27;;;6.30;99.90;;;;;;5029397;28;20744;-86
2023/02/03 06:50:24;;;;;;;3.27;2.80;;;6.20;99.90;;;;;;5027678;28;20206;-86
2023/02/03 06:52:50;;;;;;;4.50;2.47;;;6.20;99.90;;;;;;5021251;28;20185;-85
2023/02/03 06:55:16;;;;;;;5.03;2.20;;;6.20;99.90;;;;;;5025185;28;20269;-87
2023/02/03 06:57:46;;;;;;;6.60;2.73;;;6.20;99.90;;;;;;5036070;28;20185;-86
2023/02/03 07:00:13;;;;;;;2.90;2.60;;;6.20;99.90;;;;;;5044141;28;20203;-86
2023/02/03 07:02:39;;;;;;;2.83;2.13;;;6.10;99.90;;;;;;5032027;28;20225;-86
2023/02/03 07:05:05;;;;;;;3.03;2.27;;;6.10;99.90;;;;;;5032828;28;20185;-87
2023/02/03 07:07:32;;;;;;;4.23;2.80;;;6.00;99.90;;;;;;5041438;28;20231;-86
2023/02/03 07:09:59;;;;;;;5.83;2.60;;;5.90;99.90;;;;;;5039639;28;20745;-85
2023/02/03 07:12:24;;;;;;;3.90;2.57;;;5.90;99.90;;;;;;5034385;28;20173;-85
2023/02/03 07:14:50;;;;;;;3.27;2.23;;;6.00;99.90;;;;;;5017447;28;20273;-86
2023/02/03 07:17:15;;;;;;;3.90;2.43;;;6.00;99.90;;;;;;5016298;28;20185;-86
2023/02/03 07:19:41;;;;;;;3.17;2.40;;;6.00;99.90;;;;;;5035013;28;20207;-85
2023/02/03 07:22:09;;;;;;;4.20;2.40;;;6.10;99.90;;;;;;5034736;28;20578;-87
2023/02/03 07:24:35;;;;;;;3.90;2.50;;;6.00;99.90;;;;;;5035152;28;20181;-86
2023/02/03 07:27:00;;;;;;;3.70;2.30;;;6.00;99.90;;;;;;5036293;28;20228;-86
2023/02/03 07:29:26;;;;;;;3.80;2.73;;;6.00;99.90;;;;;;5037648;28;20561;-87
2023/02/03 07:31:52;;;;;;;4.33;2.83;;;6.00;99.90;;;;;;5036432;28;20200;-85
2023/02/03 07:34:17;;;;;;;6.13;2.80;;;6.10;99.90;;;;;;5036142;28;20181;-86
2023/02/03 07:36:43;;;;;;;4.10;2.80;;;6.00;99.90;;;;;;5035966;28;20277;-87
2023/02/03 07:39:08;;;;;;;3.63;2.50;;;6.10;99.90;;;;;;5029316;28;20206;-85
2023/02/03 07:41:34;;;;;;;3.53;2.30;;;6.10;99.90;;;;;;5040477;28;20185;-86
2023/02/03 07:44:00;;;;;;;3.87;2.27;;;6.20;99.90;;;;;;5040283;28;20170;-85
2023/02/03 07:46:25;;;;;;;5.30;2.30;;;6.10;99.90;;;;;;5040763;28;20197;-86
2023/02/03 07:48:51;;;;;;;5.60;3.00;;;6.10;99.90;;;;;;5040451;28;20170;-87
2023/02/03 07:51:17;;;;;;;3.93;2.40;;;6.20;99.90;;;;;;5040350;28;20295;-87
2023/02/03 07:53:42;;;;;;;4.03;2.43;;;6.20;99.90;;;;;;5040653;28;20173;-84
2023/02/03 07:56:08;;;;;;;3.23;2.60;;;6.30;99.90;;;;;;5038765;28;20593;-86
2023/02/03 07:58:33;;;;;;;4.13;3.40;;;6.30;99.90;;;;;;5039394;28;20222;-86
2023/02/03 08:00:59;;;;;;;6.97;2.47;;;6.40;99.90;;;;;;5038275;28;20209;-86
2023/02/03 08:03:25;;;;;;;6.33;2.97;;;6.30;99.90;;;;;;5025749;28;20288;-86
2023/02/03 08:05:52;;;;;;;5.87;2.93;;;6.30;99.90;;;;;;5038650;28;20220;-86
2023/02/03 08:08:17;;;;;;;4.13;2.60;;;6.30;99.90;;;;;;5038291;28;20828;-86
2023/02/03 08:10:43;;;;;;;3.50;2.57;;;6.30;99.90;;;;;;5038820;28;20191;-86
2023/02/03 08:13:09;;;;;;;3.27;2.67;;;6.20;99.90;;;;;;5038589;28;20187;-86
2023/02/03 08:15:34;;;;;;;6.00;2.50;;;6.20;99.90;;;;;;5039985;28;20559;-87
2023/02/03 08:18:00;;;;;;;5.17;3.03;;;6.10;99.90;;;;;;5040607;28;20173;-87
2023/02/03 08:20:26;;;;;;;4.63;2.90;;;6.20;99.90;;;;;;5041074;28;20702;-85
2023/02/03 08:22:52;;;;;;;4.57;3.17;;;6.20;99.90;;;;;;5050155;28;20169;-89
2023/02/03 08:25:17;;;;;;;4.03;2.73;;;6.30;99.90;;;;;;5054145;28;20200;-87
2023/02/03 08:27:43;;;;;;;5.70;2.90;;;6.20;99.90;;;;;;5058153;28;20219;-87
2023/02/03 08:30:12;;;;;;;4.63;3.07;;;6.30;99.90;;;;;;5049120;28;20228;-86
2023/02/03 08:32:38;;;;;;;3.77;2.83;;;6.20;99.90;;;;;;5038481;28;20615;-86
2023/02/03 08:35:04;;;;;;;3.70;2.83;;;6.30;99.90;;;;;;5030585;28;20213;-85
2023/02/03 08:37:31;;;;;;;5.80;3.17;;;6.30;99.90;;;;;;5037791;28;20181;-86
2023/02/03 08:39:57;;;;;;;3.87;2.80;;;6.20;99.90;;;;;;5039208;28;20192;-86
2023/02/03 08:42:23;;;;;;;5.03;3.03;;;6.30;99.90;;;;;;5038869;28;20655;-86
2023/02/03 08:44:49;;;;;;;5.00;3.13;;;6.20;99.90;;;;;;5039951;28;20181;-84
2023/02/03 08:47:14;;;;;;;7.10;3.10;;;6.30;99.90;;;;;;5039276;28;20738;-85
2023/02/03 08:49:40;;;;;;;5.63;3.17;;;6.40;99.90;;;;;;5037595;28;20220;-86
2023/02/03 08:52:08;;;;;;;5.33;3.07;;;6.30;99.90;;;;;;5038584;28;20177;-86
2023/02/03 08:54:33;;;;;;;3.57;3.20;;;6.30;99.90;;;;;;5038309;28;20181;-84
2023/02/03 08:56:59;;;;;;;4.67;2.80;;;6.20;99.90;;;;;;5038394;28;20192;-86
2023/02/03 08:59:25;;;;;;;6.30;3.53;;;6.30;99.90;;;;;;5037695;28;20208;-86
2023/02/03 09:01:52;;;;;;;4.63;2.90;;;6.30;99.90;;;;;;5033847;28;20173;-86
2023/02/03 09:04:18;;;;;;;3.87;2.73;;;6.30;99.90;;;;;;5026428;28;20197;-86
2023/02/03 09:06:47;;;;;;;5.03;3.10;;;6.30;99.90;;;;;;5037160;28;20255;-86
2023/02/03 09:09:13;;;;;;;3.83;3.20;;;6.30;99.90;;;;;;5037773;28;20212;-86
2023/02/03 09:11:40;;;;;;;4.30;3.00;;;6.30;99.90;;;;;;5038260;28;20184;-85
2023/02/03 09:14:06;;;;;;;6.03;3.20;;;6.40;99.90;;;;;;5026344;28;20386;-87
2023/02/03 09:16:31;;;;;;;5.63;2.87;;;6.40;99.90;;;;;;5019244;28;20184;-85
2023/02/03 09:18:57;;;;;;;3.63;2.57;;;6.40;99.90;;;;;;5020568;28;20178;-85
2023/02/03 09:21:23;;;;;;;4.23;2.80;;;6.40;99.90;;;;;;5029707;28;20252;-85
2023/02/03 09:23:49;;;;;;;4.03;2.83;;;6.50;99.90;;;;;;5036453;28;20216;-86
2023/02/03 09:26:15;;;;;;;5.60;3.13;;;6.50;99.90;;;;;;5038131;28;20701;-85
2023/02/03 09:28:41;;;;;;;6.20;2.93;;;6.50;99.90;;;;;;5036767;28;20196;-85
2023/02/03 09:31:10;;;;;;;6.03;3.00;;;6.50;99.90;;;;;;5029426;28;20658;-85
2023/02/03 09:33:36;;;;;;;3.13;2.83;;;6.50;99.90;;;;;;5037340;28;20172;-88
2023/02/03 09:36:02;;;;;;;4.00;3.07;;;6.50;99.90;;;;;;5037595;28;20238;-85
2023/02/03 09:38:28;;;;;;;3.80;3.00;;;6.40;99.90;;;;;;5036678;28;20209;-87
2023/02/03 09:40:56;;;;;;;4.37;3.30;;;6.50;99.90;;;;;;5035403;28;20205;-86
2023/02/03 09:43:45;;;;;;;4.43;2.93;;;6.50;99.90;;;;;;5037508;28;20169;-84
2023/02/03 09:46:14;;;;;;;4.03;3.27;;;6.60;99.90;;;;;;5038577;28;20208;-85
2023/02/03 09:48:57;;;;;;;6.53;2.97;;;6.60;99.90;;;;;;5036195;28;20172;-85
2023/02/03 09:51:28;;;;;;;4.53;2.50;;;6.60;99.90;;;;;;5038015;28;20220;-86
2023/02/03 09:54:04;;;;;;;4.10;3.37;;;6.60;99.90;;;;;;5037576;28;20161;-85
2023/02/03 09:56:33;;;;;;;5.00;3.23;;;6.60;99.90;;;;;;5037678;28;20161;-86
2023/02/03 09:59:00;;;;;;;4.40;2.80;;;6.70;99.90;;;;;;5037045;28;20249;-85
2023/02/03 10:01:39;;;;;;;5.47;3.53;;;6.70;99.90;;;;;;5035878;28;20181;-86
2023/02/03 10:04:38;;;;;;;3.23;2.83;;;6.80;99.90;;;;;;5034577;28;20161;-85
2023/02/03 10:07:31;;;;;;;3.50;2.90;;;6.80;99.90;;;;;;5036514;28;20185;-86
2023/02/03 10:10:15;;;;;;;4.27;2.97;;;6.80;99.90;;;;;;5037229;28;20203;-85
2023/02/03 10:12:45;;;;;;;5.87;3.00;;;6.90;99.90;;;;;;5036881;28;20231;-85
2023/02/03 10:15:46;;;;;;;3.73;2.50;;;6.80;99.90;;;;;;5017614;28;20177;-85
2023/02/03 10:18:19;;;;;;;5.27;3.10;;;6.80;99.90;;;;;;4985695;28;20192;-86
2023/02/03 10:20:49;;;;;;;4.63;2.87;;;6.80;99.90;;;;;;5017148;28;20198;-86
2023/02/03 10:23:37;;;;;;;3.07;2.63;;;6.90;99.90;;;;;;5018399;28;20237;-86
2023/02/03 10:26:21;;;;;;;3.97;2.97;;;6.90;99.90;;;;;;5027931;28;20209;-86
2023/02/03 10:29:02;;;;;;;5.37;3.30;;;6.90;99.90;;;;;;5037124;28;20264;-87
2023/02/03 10:31:33;;;;;;;3.57;2.73;;;7.00;99.90;;;;;;5038406;28;20650;-86
2023/02/03 10:34:09;;;;;;;5.60;3.00;;;7.00;99.90;;;;;;5037658;28;20161;-87
2023/02/03 10:36:44;;;;;;;3.27;2.97;;;7.00;99.90;;;;;;5038046;28;20176;-86
2023/02/03 10:39:41;;;;;;;3.20;2.80;;;7.00;99.90;;;;;;5035863;28;20304;-88
2023/02/03 10:42:09;;;;;;;5.80;2.70;;;7.10;99.90;;;;;;5028864;28;20279;-87
2023/02/03 10:44:47;;;;;;;3.77;2.80;;;7.20;99.90;;;;;;5035103;28;20200;-86
2023/02/03 10:47:34;;;;;;;4.50;2.70;;;7.20;99.90;;;;;;5035241;28;20200;-87
2023/02/03 10:50:12;;;;;;;3.97;2.70;;;7.10;99.90;;;;;;5014770;28;20202;-87
2023/02/03 10:52:38;;;;;;;4.23;2.90;;;7.10;99.90;;;;;;5013625;28;20178;-86
2023/02/03 10:55:21;;;;;;;3.77;2.87;;;7.20;99.90;;;;;;5014911;28;20205;-89
2023/02/03 10:57:47;;;;;;;3.90;2.87;;;7.20;99.90;;;;;;5016247;28;20192;-85
2023/02/03 11:00:26;;;;;;;3.47;2.80;;;7.20;99.90;;;;;;5026005;28;20251;-84
2023/02/03 11:03:12;;;;;;;5.53;2.67;;;7.30;99.90;;;;;;5025075;28;20276;-85
2023/02/03 11:05:37;;;;;;;4.50;2.80;;;7.40;99.90;;;;;;5019058;28;20201;-87
2023/02/03 11:08:03;;;;;;;7.23;2.97;;;7.50;99.90;;;;;;5019520;28;20325;-87
2023/02/03 11:10:39;;;;;;;5.13;2.60;;;7.50;99.90;;;;;;5018917;28;20209;-85
2023/02/03 11:13:19;;;;;;;2.90;2.70;;;7.50;99.90;;;;;;5023342;28;20188;-85
2023/02/03 11:16:04;;;;;;;4.33;2.77;;;7.60;99.90;;;;;;5042956;28;20207;-85
2023/02/03 11:18:30;;;;;;;4.67;2.50;;;7.60;99.90;;;;;;5042713;28;20192;-85
2023/02/03 11:20:57;;;;;;;4.00;2.90;;;7.60;99.90;;;;;;5038588;28;20225;-86
2023/02/03 11:23:23;;;;;;;3.13;2.70;;;7.60;99.90;;;;;;5032746;28;20189;-86
2023/02/03 11:25:49;;;;;;;7.67;2.80;;;7.60;99.90;;;;;;5042110;28;20490;-86
2023/02/03 11:28:14;;;;;;;3.37;2.70;;;7.60;99.90;;;;;;5042050;28;20229;-86
2023/02/03 11:30:41;;;;;;;3.17;2.83;;;7.50;99.90;;;;;;5042043;28;20201;-85
2023/02/03 11:33:20;;;;;;;4.27;2.60;;;7.50;99.90;;;;;;5043519;28;20168;-86
2023/02/03 11:35:57;;;;;;;3.17;2.87;;;7.60;99.90;;;;;;5041826;28;20192;-85
2023/02/03 11:38:32;;;;;;;4.27;2.60;;;7.60;99.90;;;;;;5035729;28;20741;-85
2023/02/03 11:41:00;;;;;;;2.60;1.90;;;7.60;99.90;;;;;;5018370;28;20209;-85
2023/02/03 11:43:28;;;;;;;2.03;1.60;;;8.00;99.90;;;;;;5023982;28;20291;-86
2023/02/03 11:46:00;;;;;;;1.50;1.40;;;8.30;99.10;;;;;;5026593;28;20239;-85
2023/02/03 11:48:37;;;;;;;2.43;2.23;;;8.40;98.00;;;;;;5022714;28;20220;-85
2023/02/03 11:51:12;;;;;;;1.57;1.47;;;8.30;99.90;;;;;;5021023;28;20224;-87
2023/02/03 11:54:02;;;;;;;4.60;1.80;;;8.30;99.00;;;;;;5018412;28;20177;-85
2023/02/03 11:56:34;;;;;;;6.07;1.80;;;8.30;99.10;;;;;;5022712;28;20555;-85
2023/02/03 11:59:00;;;;;;;1.47;1.33;;;8.40;98.00;;;;;;5030236;28;20185;-86
2023/02/03 12:02:14;;;;;;;1.30;1.30;;;8.40;97.70;;;;;;5024679;28;20204;-86
2023/02/03 12:04:54;;;;;;;1.73;1.63;;;8.40;96.60;;;;;;4983110;28;20380;-87
2023/02/03 12:07:22;;;;;;;1.50;1.40;;;8.50;96.60;;;;;;5023716;28;20236;-86
2023/02/03 12:09:57;;;;;;;1.30;1.30;;;8.50;96.40;;;;;;5020968;28;20217;-86
2023/02/03 12:12:52;;;;;;;1.90;1.80;;;8.50;96.40;;;;;;5027693;28;20176;-89
2023/02/03 12:15:42;;;;;;;1.60;1.50;;;8.50;96.10;;;;;;5025536;28;20232;-87
2023/02/03 12:18:14;;;;;;;1.80;1.33;;;8.50;96.10;;;;;;5023020;28;20220;-87
2023/02/03 12:21:02;;;;;;;1.83;1.73;;;8.40;97.00;;;;;;5019408;28;20219;-87
2023/02/03 12:23:39;;;;;;;1.70;1.60;;;8.40;97.70;;;;;;5028499;28;20200;-86
2023/02/03 12:26:16;;;;;;;2.13;1.50;;;8.40;98.00;;;;;;5027347;28;20210;-88
2023/02/03 12:28:41;;;;;;;1.70;1.60;;;8.40;97.20;;;;;;5034862;28;20174;-88
2023/02/03 12:31:16;;;;;;;1.80;1.50;;;8.50;97.20;;;;;;5039021;28;20213;-87
2023/02/03 12:33:49;;;;;;;2.07;1.33;;;8.60;96.10;;;;;;5032611;28;20284;-88
2023/02/03 12:36:21;;;;;;;1.90;1.50;;;8.60;95.80;;;;;;5033231;28;20401;-85
2023/02/03 12:39:13;;;;;;;1.70;1.60;;;8.60;96.00;;;;;;5027998;28;20627;-86
2023/02/03 12:41:44;;;;;;;1.80;1.60;;;8.60;95.50;;;;;;5027260;28;20192;-85
2023/02/03 12:44:38;;;;;;;2.80;1.83;;;8.50;96.10;;;;;;5029586;28;20181;-87
2023/02/03 12:47:15;;;;;;;2.53;1.70;;;8.60;96.20;;;;;;5028053;28;20225;-85
2023/02/03 12:49:50;;;;;;;2.83;1.63;;;8.60;96.90;;;;;;5021504;28;20209;-86
2023/02/03 12:52:41;;;;;;;2.53;1.70;;;8.40;97.40;;;;;;5027227;28;20850;-86
2023/02/03 12:55:33;;;;;;;2.30;2.10;;;8.50;97.10;;;;;;5031217;28;20185;-86
2023/02/03 12:58:09;;;;;;;2.13;2.00;;;8.40;98.10;;;;;;5029483;28;20238;-85
2023/02/03 13:00:57;;;;;;;1.67;1.53;;;8.50;97.60;;;;;;5023305;28;20225;-84
2023/02/03 13:03:34;;;;;;;1.83;1.73;;;8.50;97.30;;;;;;5029664;28;20235;-86
2023/02/03 13:06:51;;;;;;;1.90;1.53;;;8.50;98.00;;;;;;5024662;28;20216;-86
2023/02/03 13:09:19;;;;;;;1.60;1.50;;;8.70;97.90;;;;;;4975957;28;20191;-86
2023/02/03 13:11:59;;;;;;;1.50;1.40;;;8.60;97.20;;;;;;5015029;28;20288;-87
2023/02/03 13:14:35;;;;;;;1.97;1.73;;;8.60;97.60;;;;;;5025872;28;20185;-83